Impacts METAR Board INFO
IDs:

KTPA - Tampa Intl Arpt, FL, US

Updated at: 1906 UTC 16 Jan 2018
Potential Impact None Slight Moderate High
Time16/07Z 16/08Z 16/09Z 16/10Z 16/11Z 16/12Z 16/13Z 16/14Z 16/15Z 16/16Z 16/17Z 16/18Z 16/19Z
VIS10 10 10 10 10 10 10 10 10 10 10 10 10
CIG-- -- -- -- 65 -- -- -- -- -- -- -- --
CoverSCTSCTSCTFEWBKNFEWFEWSCTFEWSCTSCTSCTSCT
FltCatVFRVFRVFRVFRVFRVFRVFRVFRVFRVFRVFRVFRVFR
WX--------------------------
WDir303030304030303050700900
WSpd7 7 7 7 7 7 5 6 7 5 5 6 4
WGst-- -- -- -- -- -- -- -- -- -- -- -- --
Raw hourly METARs
KTPA 160653Z 03007KT 10SM SCT060 09/04 A3035 RMK AO2 SLP276 T00940044
KTPA 160753Z 03007KT 10SM SCT065 09/05 A3034 RMK AO2 SLP274 T00940050
KTPA 160853Z 03007KT 10SM SCT065 09/06 A3034 RMK AO2 SLP273 T00940056 56006
KTPA 160953Z 03007KT 10SM FEW070 09/06 A3034 RMK AO2 SLP273 T00940056
KTPA 161053Z 04007KT 10SM BKN065 10/06 A3035 RMK AO2 SLP278 T01000061
KTPA 161153Z 03007KT 10SM FEW065 09/06 A3035 RMK AO2 SLP278 T00940061 10100 20089 53005
KTPA 161253Z 03005KT 10SM FEW060 10/06 A3037 RMK AO2 SLP283 T01000061
KTPA 161353Z 03006KT 10SM SCT065 12/08 A3038 RMK AO2 SLP286 T01220078
KTPA 161453Z 05007KT 10SM FEW070 15/08 A3039 RMK AO2 SLP291 T01500083 52013
KTPA 161553Z 07005KT 10SM SCT075 18/09 A3039 RMK AO2 SLP292 T01830094
KTPA 161653Z VRB05KT 10SM SCT065 20/10 A3036 RMK AO2 SLP282 T02000100
KTPA 161753Z 09006KT 10SM SCT065 22/08 A3034 RMK AO2 SLP272 T02170083 10217 20094 58019
KTPA 161853Z VRB04KT 10SM SCT055 SCT250 23/08 A3030 RMK AO2 SLP258 T02330083